sensor_id;sensor_type;location;lat;lon;timestamp;noise_LAeq;noise_LA_min;noise_LA_max;noise_LA01;noise_LA95
70454;Laerm;57915;47.174;14.680;2022-12-07T00:00:17;46.44;45.43;49.17;;
70454;Laerm;57915;47.174;14.680;2022-12-07T00:01:19;46.28;45.51;47.54;;
70454;Laerm;57915;47.174;14.680;2022-12-07T00:02:21;46.17;45.40;46.89;;
70454;Laerm;57915;47.174;14.680;2022-12-07T00:03:23;46.11;45.36;46.80;;
70454;Laerm;57915;47.174;14.680;2022-12-07T00:04:24;46.21;45.50;47.27;;
70454;Laerm;57915;47.174;14.680;2022-12-07T00:05:26;46.32;45.52;47.88;;
70454;Laerm;57915;47.174;14.680;2022-12-07T00:06:26;46.38;45.52;47.59;;
70454;Laerm;57915;47.174;14.680;2022-12-07T00:07:28;47.56;45.96;50.79;;
70454;Laerm;57915;47.174;14.680;2022-12-07T00:08:28;48.73;46.27;52.27;;
70454;Laerm;57915;47.174;14.680;2022-12-07T00:09:30;53.52;45.71;64.48;;
70454;Laerm;57915;47.174;14.680;2022-12-07T00:10:32;46.63;45.43;49.13;;
70454;Laerm;57915;47.174;14.680;2022-12-07T00:11:34;55.42;45.67;67.54;;
70454;Laerm;57915;47.174;14.680;2022-12-07T00:12:36;47.50;45.79;55.54;;
70454;Laerm;57915;47.174;14.680;2022-12-07T00:13:36;51.95;45.73;63.38;;
70454;Laerm;57915;47.174;14.680;2022-12-07T00:14:38;46.48;45.77;47.44;;
70454;Laerm;57915;47.174;14.680;2022-12-07T00:15:39;46.61;45.83;47.42;;
70454;Laerm;57915;47.174;14.680;2022-12-07T00:16:40;46.64;45.91;47.45;;
70454;Laerm;57915;47.174;14.680;2022-12-07T00:17:41;46.92;46.01;49.06;;
70454;Laerm;57915;47.174;14.680;2022-12-07T00:18:42;58.62;46.09;71.08;;
70454;Laerm;57915;47.174;14.680;2022-12-07T00:19:43;55.21;46.04;66.62;;
70454;Laerm;57915;47.174;14.680;2022-12-07T00:20:45;46.78;45.80;48.82;;
70454;Laerm;57915;47.174;14.680;2022-12-07T00:21:45;46.66;45.81;47.73;;
70454;Laerm;57915;47.174;14.680;2022-12-07T00:22:47;46.56;45.87;48.30;;
70454;Laerm;57915;47.174;14.680;2022-12-07T00:23:48;46.73;45.97;47.79;;
70454;Laerm;57915;47.174;14.680;2022-12-07T00:24:49;47.11;46.05;48.75;;
70454;Laerm;57915;47.174;14.680;2022-12-07T00:25:50;47.12;46.13;48.93;;
70454;Laerm;57915;47.174;14.680;2022-12-07T00:26:53;46.72;45.89;47.59;;
70454;Laerm;57915;47.174;14.680;2022-12-07T00:27:54;52.59;45.46;66.33;;
70454;Laerm;57915;47.174;14.680;2022-12-07T00:28:57;50.79;46.07;65.02;;
70454;Laerm;57915;47.174;14.680;2022-12-07T00:29:59;46.96;45.96;48.45;;
70454;Laerm;57915;47.174;14.680;2022-12-07T00:31:03;47.54;46.48;50.43;;
70454;Laerm;57915;47.174;14.680;2022-12-07T00:32:05;48.59;46.67;51.75;;
70454;Laerm;57915;47.174;14.680;2022-12-07T00:33:05;46.87;45.97;48.15;;
70454;Laerm;57915;47.174;14.680;2022-12-07T00:34:07;57.17;46.06;70.81;;
70454;Laerm;57915;47.174;14.680;2022-12-07T00:35:11;47.09;46.07;52.21;;
70454;Laerm;57915;47.174;14.680;2022-12-07T00:36:14;47.18;46.11;50.23;;
70454;Laerm;57915;47.174;14.680;2022-12-07T00:37:15;46.90;46.10;48.33;;
70454;Laerm;57915;47.174;14.680;2022-12-07T00:38:16;46.84;46.13;47.56;;
70454;Laerm;57915;47.174;14.680;2022-12-07T00:39:17;46.85;46.12;47.60;;
70454;Laerm;57915;47.174;14.680;2022-12-07T00:40:19;46.75;46.03;47.71;;
70454;Laerm;57915;47.174;14.680;2022-12-07T00:41:20;46.86;46.05;47.56;;
70454;Laerm;57915;47.174;14.680;2022-12-07T00:42:24;46.92;46.17;48.48;;
70454;Laerm;57915;47.174;14.680;2022-12-07T00:43:24;46.88;46.19;47.80;;
70454;Laerm;57915;47.174;14.680;2022-12-07T00:44:26;46.90;46.09;47.69;;
70454;Laerm;57915;47.174;14.680;2022-12-07T00:45:27;46.98;46.13;47.68;;
70454;Laerm;57915;47.174;14.680;2022-12-07T00:46:28;46.90;46.22;47.82;;
70454;Laerm;57915;47.174;14.680;2022-12-07T00:47:30;47.05;46.20;47.90;;
70454;Laerm;57915;47.174;14.680;2022-12-07T00:48:30;47.13;46.39;47.94;;
70454;Laerm;57915;47.174;14.680;2022-12-07T00:49:31;47.17;46.34;48.18;;
70454;Laerm;57915;47.174;14.680;2022-12-07T00:50:32;47.13;46.45;48.57;;
70454;Laerm;57915;47.174;14.680;2022-12-07T00:51:34;47.32;46.46;48.41;;
70454;Laerm;57915;47.174;14.680;2022-12-07T00:52:35;47.14;46.45;48.99;;
70454;Laerm;57915;47.174;14.680;2022-12-07T00:53:36;47.16;46.48;47.80;;
70454;Laerm;57915;47.174;14.680;2022-12-07T00:54:37;47.18;46.51;47.87;;
70454;Laerm;57915;47.174;14.680;2022-12-07T00:55:39;47.20;46.51;48.12;;
70454;Laerm;57915;47.174;14.680;2022-12-07T00:56:40;47.24;46.49;48.59;;
70454;Laerm;57915;47.174;14.680;2022-12-07T00:57:42;47.19;46.53;47.81;;
70454;Laerm;57915;47.174;14.680;2022-12-07T00:58:43;47.33;46.68;47.98;;
70454;Laerm;57915;47.174;14.680;2022-12-07T00:59:45;47.45;46.73;48.97;;
70454;Laerm;57915;47.174;14.680;2022-12-07T01:00:45;47.31;46.65;47.91;;
70454;Laerm;57915;47.174;14.680;2022-12-07T01:01:47;47.31;46.71;47.94;;
70454;Laerm;57915;47.174;14.680;2022-12-07T01:02:47;48.37;46.83;50.58;;
70454;Laerm;57915;47.174;14.680;2022-12-07T01:03:49;49.64;47.14;57.14;;
70454;Laerm;57915;47.174;14.680;2022-12-07T01:04:49;47.59;46.90;48.30;;
70454;Laerm;57915;47.174;14.680;2022-12-07T01:05:51;47.53;46.85;48.15;;
70454;Laerm;57915;47.174;14.680;2022-12-07T01:06:52;58.08;46.93;69.39;;
70454;Laerm;57915;47.174;14.680;2022-12-07T01:07:53;49.08;46.94;58.22;;
70454;Laerm;57915;47.174;14.680;2022-12-07T01:08:54;47.58;46.91;48.20;;
70454;Laerm;57915;47.174;14.680;2022-12-07T01:09:55;47.53;46.79;48.17;;
70454;Laerm;57915;47.174;14.680;2022-12-07T01:10:59;47.67;46.97;48.75;;
70454;Laerm;57915;47.174;14.680;2022-12-07T01:12:01;47.67;46.94;48.80;;
70454;Laerm;57915;47.174;14.680;2022-12-07T01:13:04;47.67;46.93;48.58;;
70454;Laerm;57915;47.174;14.680;2022-12-07T01:14:04;47.67;46.98;48.86;;
70454;Laerm;57915;47.174;14.680;2022-12-07T01:15:07;47.67;46.98;49.10;;
70454;Laerm;57915;47.174;14.680;2022-12-07T01:16:09;47.64;46.84;48.49;;
70454;Laerm;57915;47.174;14.680;2022-12-07T01:17:10;47.63;46.86;48.80;;
70454;Laerm;57915;47.174;14.680;2022-12-07T01:18:11;47.56;46.83;48.22;;
70454;Laerm;57915;47.174;14.680;2022-12-07T01:19:12;47.45;46.78;48.33;;
70454;Laerm;57915;47.174;14.680;2022-12-07T01:20:13;47.47;46.74;48.70;;
70454;Laerm;57915;47.174;14.680;2022-12-07T01:21:16;47.53;46.80;48.17;;
70454;Laerm;57915;47.174;14.680;2022-12-07T01:22:17;47.63;46.86;48.73;;
70454;Laerm;57915;47.174;14.680;2022-12-07T01:23:18;47.48;46.81;48.20;;
70454;Laerm;57915;47.174;14.680;2022-12-07T01:24:18;47.74;46.71;62.11;;
70454;Laerm;57915;47.174;14.680;2022-12-07T01:25:20;47.33;46.72;47.97;;
70454;Laerm;57915;47.174;14.680;2022-12-07T01:26:22;47.31;46.67;47.93;;
70454;Laerm;57915;47.174;14.680;2022-12-07T01:27:24;47.35;46.74;47.94;;
70454;Laerm;57915;47.174;14.680;2022-12-07T01:28:26;54.16;46.57;65.90;;
70454;Laerm;57915;47.174;14.680;2022-12-07T01:29:27;47.52;46.85;48.89;;
70454;Laerm;57915;47.174;14.680;2022-12-07T01:30:28;47.51;46.81;48.41;;
70454;Laerm;57915;47.174;14.680;2022-12-07T01:31:29;47.39;46.68;48.33;;
70454;Laerm;57915;47.174;14.680;2022-12-07T01:32:30;47.44;46.75;48.29;;
70454;Laerm;57915;47.174;14.680;2022-12-07T01:33:32;49.01;46.90;56.52;;
70454;Laerm;57915;47.174;14.680;2022-12-07T01:34:33;47.74;46.86;49.35;;
70454;Laerm;57915;47.174;14.680;2022-12-07T01:35:35;47.59;46.80;48.39;;
70454;Laerm;57915;47.174;14.680;2022-12-07T01:36:36;47.66;46.88;48.65;;
70454;Laerm;57915;47.174;14.680;2022-12-07T01:37:38;47.60;46.86;48.32;;
70454;Laerm;57915;47.174;14.680;2022-12-07T01:38:39;47.63;46.85;49.84;;
70454;Laerm;57915;47.174;14.680;2022-12-07T01:39:41;58.09;46.73;71.54;;
70454;Laerm;57915;47.174;14.680;2022-12-07T01:40:42;47.53;46.80;48.49;;
70454;Laerm;57915;47.174;14.680;2022-12-07T01:41:43;47.46;46.76;48.19;;
70454;Laerm;57915;47.174;14.680;2022-12-07T01:42:44;49.13;46.94;55.57;;
70454;Laerm;57915;47.174;14.680;2022-12-07T01:46:26;47.56;46.85;48.40;;
70454;Laerm;57915;47.174;14.680;2022-12-07T01:47:27;47.42;46.73;48.10;;
70454;Laerm;57915;47.174;14.680;2022-12-07T01:48:28;47.39;46.80;47.99;;
70454;Laerm;57915;47.174;14.680;2022-12-07T01:49:32;47.41;46.80;47.98;;
70454;Laerm;57915;47.174;14.680;2022-12-07T01:50:33;47.37;46.70;48.05;;
70454;Laerm;57915;47.174;14.680;2022-12-07T01:51:36;47.27;46.63;48.42;;
70454;Laerm;57915;47.174;14.680;2022-12-07T01:52:37;48.57;46.79;51.92;;
70454;Laerm;57915;47.174;14.680;2022-12-07T01:53:42;47.54;46.66;48.55;;
70454;Laerm;57915;47.174;14.680;2022-12-07T01:54:44;47.21;46.26;48.07;;
70454;Laerm;57915;47.174;14.680;2022-12-07T01:55:47;47.21;46.36;48.34;;
70454;Laerm;57915;47.174;14.680;2022-12-07T01:56:50;47.80;46.58;50.03;;
70454;Laerm;57915;47.174;14.680;2022-12-07T01:57:53;47.19;46.43;48.81;;
70454;Laerm;57915;47.174;14.680;2022-12-07T01:58:54;47.18;46.36;48.07;;
70454;Laerm;57915;47.174;14.680;2022-12-07T01:59:57;48.30;46.58;51.81;;
70454;Laerm;57915;47.174;14.680;2022-12-07T02:00:58;47.34;46.36;49.38;;
70454;Laerm;57915;47.174;14.680;2022-12-07T02:02:01;47.02;46.20;48.96;;
70454;Laerm;57915;47.174;14.680;2022-12-07T02:03:04;46.93;46.14;47.73;;
70454;Laerm;57915;47.174;14.680;2022-12-07T02:04:08;46.81;46.06;47.69;;
70454;Laerm;57915;47.174;14.680;2022-12-07T02:05:09;46.94;46.13;48.91;;
70454;Laerm;57915;47.174;14.680;2022-12-07T02:06:12;47.02;46.16;48.47;;
70454;Laerm;57915;47.174;14.680;2022-12-07T02:07:15;46.89;46.12;47.72;;
70454;Laerm;57915;47.174;14.680;2022-12-07T02:08:15;46.89;45.99;47.74;;
70454;Laerm;57915;47.174;14.680;2022-12-07T02:09:17;46.71;45.93;47.47;;
70454;Laerm;57915;47.174;14.680;2022-12-07T02:10:18;46.66;45.84;47.50;;
70454;Laerm;57915;47.174;14.680;2022-12-07T02:11:20;46.62;45.91;47.32;;
70454;Laerm;57915;47.174;14.680;2022-12-07T02:12:21;46.77;45.92;48.22;;
70454;Laerm;57915;47.174;14.680;2022-12-07T02:13:25;46.64;45.87;47.40;;
70454;Laerm;57915;47.174;14.680;2022-12-07T02:14:26;46.64;45.93;47.32;;
70454;Laerm;57915;47.174;14.680;2022-12-07T02:15:29;46.60;45.90;47.23;;
70454;Laerm;57915;47.174;14.680;2022-12-07T02:16:34;46.60;45.86;47.25;;
70454;Laerm;57915;47.174;14.680;2022-12-07T02:17:40;46.60;45.81;49.33;;
70454;Laerm;57915;47.174;14.680;2022-12-07T02:18:47;46.70;46.02;47.68;;
70454;Laerm;57915;47.174;14.680;2022-12-07T02:21:19;47.30;45.76;55.08;;
70454;Laerm;57915;47.174;14.680;2022-12-07T02:22:30;46.90;45.85;47.89;;
70454;Laerm;57915;47.174;14.680;2022-12-07T02:23:41;55.94;46.35;69.03;;
70454;Laerm;57915;47.174;14.680;2022-12-07T02:24:48;47.09;46.32;47.88;;
70454;Laerm;57915;47.174;14.680;2022-12-07T02:25:58;47.21;46.26;48.36;;
70454;Laerm;57915;47.174;14.680;2022-12-07T02:27:13;54.94;46.40;67.84;;
70454;Laerm;57915;47.174;14.680;2022-12-07T02:28:18;47.12;46.35;48.33;;
70454;Laerm;57915;47.174;14.680;2022-12-07T02:29:25;47.16;46.34;49.95;;
70454;Laerm;57915;47.174;14.680;2022-12-07T02:30:28;57.80;46.26;71.30;;
70454;Laerm;57915;47.174;14.680;2022-12-07T02:31:32;47.11;46.32;47.91;;
70454;Laerm;57915;47.174;14.680;2022-12-07T02:32:36;47.08;46.31;47.91;;
70454;Laerm;57915;47.174;14.680;2022-12-07T02:33:40;47.03;46.31;47.80;;
70454;Laerm;57915;47.174;14.680;2022-12-07T02:34:44;47.27;46.46;48.07;;
70454;Laerm;57915;47.174;14.680;2022-12-07T02:35:51;47.26;46.55;48.14;;
70454;Laerm;57915;47.174;14.680;2022-12-07T02:36:55;47.23;46.56;48.06;;
70454;Laerm;57915;47.174;14.680;2022-12-07T02:37:59;47.35;46.60;49.69;;
70454;Laerm;57915;47.174;14.680;2022-12-07T02:39:03;47.44;46.70;48.99;;
70454;Laerm;57915;47.174;14.680;2022-12-07T02:40:09;47.64;46.71;49.10;;
70454;Laerm;57915;47.174;14.680;2022-12-07T02:41:11;56.16;47.27;68.92;;
70454;Laerm;57915;47.174;14.680;2022-12-07T02:42:15;52.15;46.99;58.68;;
70454;Laerm;57915;47.174;14.680;2022-12-07T02:43:17;47.67;46.89;48.83;;
70454;Laerm;57915;47.174;14.680;2022-12-07T02:44:21;47.59;46.83;48.29;;
70454;Laerm;57915;47.174;14.680;2022-12-07T02:45:25;47.76;46.94;50.91;;
70454;Laerm;57915;47.174;14.680;2022-12-07T02:46:29;47.51;46.70;48.94;;
70454;Laerm;57915;47.174;14.680;2022-12-07T02:47:31;47.47;46.71;48.12;;
70454;Laerm;57915;47.174;14.680;2022-12-07T02:48:34;47.58;46.72;48.36;;
70454;Laerm;57915;47.174;14.680;2022-12-07T02:49:36;47.59;46.87;52.58;;
70454;Laerm;57915;47.174;14.680;2022-12-07T02:50:44;47.79;46.88;51.61;;
70454;Laerm;57915;47.174;14.680;2022-12-07T02:51:45;57.45;47.59;70.00;;
70454;Laerm;57915;47.174;14.680;2022-12-07T02:52:46;48.40;46.78;54.02;;
70454;Laerm;57915;47.174;14.680;2022-12-07T02:53:48;47.38;46.63;48.06;;
70454;Laerm;57915;47.174;14.680;2022-12-07T02:54:48;47.66;46.76;48.81;;
70454;Laerm;57915;47.174;14.680;2022-12-07T02:55:50;47.65;46.71;48.68;;
70454;Laerm;57915;47.174;14.680;2022-12-07T02:56:51;47.42;46.69;48.20;;
70454;Laerm;57915;47.174;14.680;2022-12-07T02:58:08;47.29;46.59;48.05;;
70454;Laerm;57915;47.174;14.680;2022-12-07T02:59:15;57.25;46.62;74.09;;
70454;Laerm;57915;47.174;14.680;2022-12-07T03:00:19;47.53;46.52;51.95;;
70454;Laerm;57915;47.174;14.680;2022-12-07T03:01:24;47.22;46.48;48.03;;
70454;Laerm;57915;47.174;14.680;2022-12-07T03:02:31;47.22;46.49;47.96;;
70454;Laerm;57915;47.174;14.680;2022-12-07T03:03:34;47.32;46.50;48.35;;
70454;Laerm;57915;47.174;14.680;2022-12-07T03:04:39;48.57;46.54;59.11;;
70454;Laerm;57915;47.174;14.680;2022-12-07T03:05:46;54.91;46.68;67.32;;
70454;Laerm;57915;47.174;14.680;2022-12-07T03:06:51;47.83;46.61;52.31;;
70454;Laerm;57915;47.174;14.680;2022-12-07T03:07:54;54.43;46.53;65.58;;
70454;Laerm;57915;47.174;14.680;2022-12-07T03:09:02;47.32;46.54;48.60;;
70454;Laerm;57915;47.174;14.680;2022-12-07T03:10:07;47.45;46.46;50.18;;
70454;Laerm;57915;47.174;14.680;2022-12-07T03:11:10;56.84;46.38;67.74;;
70454;Laerm;57915;47.174;14.680;2022-12-07T03:12:14;48.60;46.57;58.04;;
70454;Laerm;57915;47.174;14.680;2022-12-07T03:13:19;58.63;46.87;68.44;;
70454;Laerm;57915;47.174;14.680;2022-12-07T03:14:21;55.04;46.62;67.18;;
70454;Laerm;57915;47.174;14.680;2022-12-07T03:15:26;59.22;46.51;72.04;;
70454;Laerm;57915;47.174;14.680;2022-12-07T03:16:29;47.56;46.47;49.68;;
70454;Laerm;57915;47.174;14.680;2022-12-07T03:17:33;56.61;46.23;69.15;;
70454;Laerm;57915;47.174;14.680;2022-12-07T03:18:36;47.25;46.36;49.41;;
70454;Laerm;57915;47.174;14.680;2022-12-07T03:19:38;47.53;46.50;50.53;;
70454;Laerm;57915;47.174;14.680;2022-12-07T03:20:41;47.99;46.78;50.61;;
70454;Laerm;57915;47.174;14.680;2022-12-07T03:21:44;57.14;47.21;69.18;;
70454;Laerm;57915;47.174;14.680;2022-12-07T03:22:47;47.58;46.39;50.05;;
70454;Laerm;57915;47.174;14.680;2022-12-07T03:23:48;57.91;46.38;70.26;;
70454;Laerm;57915;47.174;14.680;2022-12-07T03:24:53;57.05;46.37;70.06;;
70454;Laerm;57915;47.174;14.680;2022-12-07T03:25:56;54.17;45.68;66.07;;
70454;Laerm;57915;47.174;14.680;2022-12-07T03:27:00;53.53;45.92;65.17;;
70454;Laerm;57915;47.174;14.680;2022-12-07T03:28:02;48.86;45.27;58.15;;
70454;Laerm;57915;47.174;14.680;2022-12-07T03:29:07;47.19;46.41;48.10;;
70454;Laerm;57915;47.174;14.680;2022-12-07T03:30:12;47.31;46.44;48.71;;
70454;Laerm;57915;47.174;14.680;2022-12-07T03:31:16;47.21;46.42;48.16;;
70454;Laerm;57915;47.174;14.680;2022-12-07T03:32:19;47.67;46.23;51.93;;
70454;Laerm;57915;47.174;14.680;2022-12-07T03:33:24;59.22;46.86;69.39;;
70454;Laerm;57915;47.174;14.680;2022-12-07T03:34:27;58.50;46.81;69.91;;
70454;Laerm;57915;47.174;14.680;2022-12-07T03:35:31;57.72;46.92;69.46;;
70454;Laerm;57915;47.174;14.680;2022-12-07T03:36:35;60.93;46.72;70.65;;
70454;Laerm;57915;47.174;14.680;2022-12-07T03:37:39;52.84;46.77;64.06;;
70454;Laerm;57915;47.174;14.680;2022-12-07T03:38:42;48.25;46.79;52.33;;
70454;Laerm;57915;47.174;14.680;2022-12-07T03:39:49;47.82;46.74;48.83;;
70454;Laerm;57915;47.174;14.680;2022-12-07T03:40:52;48.60;46.94;51.48;;
70454;Laerm;57915;47.174;14.680;2022-12-07T03:41:56;51.62;48.65;55.27;;
70454;Laerm;57915;47.174;14.680;2022-12-07T03:42:58;59.12;47.19;70.98;;
70454;Laerm;57915;47.174;14.680;2022-12-07T03:44:01;59.60;47.10;72.07;;
70454;Laerm;57915;47.174;14.680;2022-12-07T03:45:03;61.97;46.99;75.94;;
70454;Laerm;57915;47.174;14.680;2022-12-07T03:46:06;58.54;46.80;70.70;;
70454;Laerm;57915;47.174;14.680;2022-12-07T03:47:13;64.18;46.51;76.04;;
70454;Laerm;57915;47.174;14.680;2022-12-07T03:48:19;58.81;46.85;67.90;;
70454;Laerm;57915;47.174;14.680;2022-12-07T03:49:23;47.86;46.70;50.35;;
70454;Laerm;57915;47.174;14.680;2022-12-07T03:50:27;47.70;46.65;49.77;;
70454;Laerm;57915;47.174;14.680;2022-12-07T03:51:36;56.43;47.07;68.31;;
70454;Laerm;57915;47.174;14.680;2022-12-07T03:52:40;55.09;47.12;67.73;;
70454;Laerm;57915;47.174;14.680;2022-12-07T03:53:44;57.28;47.06;67.37;;
70454;Laerm;57915;47.174;14.680;2022-12-07T03:54:48;58.51;46.92;70.75;;
70454;Laerm;57915;47.174;14.680;2022-12-07T03:55:52;47.52;46.75;48.42;;
70454;Laerm;57915;47.174;14.680;2022-12-07T03:56:54;47.50;46.68;49.10;;
70454;Laerm;57915;47.174;14.680;2022-12-07T03:57:56;47.46;46.67;48.33;;
70454;Laerm;57915;47.174;14.680;2022-12-07T03:59:00;47.88;46.87;50.96;;
70454;Laerm;57915;47.174;14.680;2022-12-07T04:00:01;61.20;47.72;71.16;;
70454;Laerm;57915;47.174;14.680;2022-12-07T04:01:04;59.76;46.80;73.47;;
70454;Laerm;57915;47.174;14.680;2022-12-07T04:02:06;55.03;46.80;66.58;;
70454;Laerm;57915;47.174;14.680;2022-12-07T04:03:07;47.76;46.78;49.85;;
70454;Laerm;57915;47.174;14.680;2022-12-07T04:04:09;55.56;46.96;67.15;;
70454;Laerm;57915;47.174;14.680;2022-12-07T04:05:11;47.80;47.01;48.71;;
70454;Laerm;57915;47.174;14.680;2022-12-07T04:06:12;48.35;47.38;50.20;;
70454;Laerm;57915;47.174;14.680;2022-12-07T04:07:13;48.05;46.98;49.32;;
70454;Laerm;57915;47.174;14.680;2022-12-07T04:08:14;63.44;47.81;75.27;;
70454;Laerm;57915;47.174;14.680;2022-12-07T04:09:15;63.45;48.59;74.30;;
70454;Laerm;57915;47.174;14.680;2022-12-07T04:10:16;55.77;46.31;65.70;;
70454;Laerm;57915;47.174;14.680;2022-12-07T04:11:18;53.83;47.51;65.49;;
70454;Laerm;57915;47.174;14.680;2022-12-07T04:12:19;54.36;48.00;65.43;;
70454;Laerm;57915;47.174;14.680;2022-12-07T04:13:20;59.17;48.17;69.31;;
70454;Laerm;57915;47.174;14.680;2022-12-07T04:14:21;60.53;48.60;70.51;;
70454;Laerm;57915;47.174;14.680;2022-12-07T04:15:22;55.87;48.64;66.00;;
70454;Laerm;57915;47.174;14.680;2022-12-07T04:16:23;56.56;48.88;66.33;;
70454;Laerm;57915;47.174;14.680;2022-12-07T04:17:24;49.85;48.31;54.00;;
70454;Laerm;57915;47.174;14.680;2022-12-07T04:18:25;55.04;48.62;64.83;;
70454;Laerm;57915;47.174;14.680;2022-12-07T04:19:28;49.46;48.53;50.77;;
70454;Laerm;57915;47.174;14.680;2022-12-07T04:20:29;59.49;48.62;73.61;;
70454;Laerm;57915;47.174;14.680;2022-12-07T04:21:30;50.52;49.00;54.49;;
70454;Laerm;57915;47.174;14.680;2022-12-07T04:22:31;51.17;48.90;62.36;;
70454;Laerm;57915;47.174;14.680;2022-12-07T04:23:32;60.14;49.35;68.65;;
70454;Laerm;57915;47.174;14.680;2022-12-07T04:24:33;57.45;49.23;70.44;;
70454;Laerm;57915;47.174;14.680;2022-12-07T04:25:42;56.32;49.49;65.86;;
70454;Laerm;57915;47.174;14.680;2022-12-07T04:26:43;60.62;49.57;71.25;;
70454;Laerm;57915;47.174;14.680;2022-12-07T04:27:45;53.30;49.11;61.33;;
70454;Laerm;57915;47.174;14.680;2022-12-07T04:28:46;51.53;49.74;55.22;;
70454;Laerm;57915;47.174;14.680;2022-12-07T04:29:48;58.91;50.04;70.18;;
70454;Laerm;57915;47.174;14.680;2022-12-07T04:30:48;50.57;49.31;58.61;;
70454;Laerm;57915;47.174;14.680;2022-12-07T04:31:50;61.74;49.72;71.24;;
70454;Laerm;57915;47.174;14.680;2022-12-07T04:32:51;61.56;50.88;69.53;;
70454;Laerm;57915;47.174;14.680;2022-12-07T04:33:52;62.07;50.25;72.50;;
70454;Laerm;57915;47.174;14.680;2022-12-07T04:34:57;63.05;50.65;72.45;;
70454;Laerm;57915;47.174;14.680;2022-12-07T04:35:58;59.93;50.30;68.20;;
70454;Laerm;57915;47.174;14.680;2022-12-07T04:36:59;64.31;50.28;76.06;;
70454;Laerm;57915;47.174;14.680;2022-12-07T04:38:00;56.12;49.75;68.67;;
70454;Laerm;57915;47.174;14.680;2022-12-07T04:39:01;62.75;49.63;72.56;;
70454;Laerm;57915;47.174;14.680;2022-12-07T04:40:03;64.22;51.21;74.48;;
70454;Laerm;57915;47.174;14.680;2022-12-07T04:41:04;61.12;49.36;71.92;;
70454;Laerm;57915;47.174;14.680;2022-12-07T04:42:06;64.93;50.16;74.20;;
70454;Laerm;57915;47.174;14.680;2022-12-07T04:43:07;55.74;49.82;65.27;;
70454;Laerm;57915;47.174;14.680;2022-12-07T04:44:08;60.21;49.55;71.15;;
70454;Laerm;57915;47.174;14.680;2022-12-07T04:45:09;56.56;49.30;67.75;;
70454;Laerm;57915;47.174;14.680;2022-12-07T04:46:10;57.11;49.46;69.23;;
70454;Laerm;57915;47.174;14.680;2022-12-07T04:47:11;50.32;49.20;51.33;;
70454;Laerm;57915;47.174;14.680;2022-12-07T04:48:13;60.53;49.66;69.95;;
70454;Laerm;57915;47.174;14.680;2022-12-07T04:49:13;56.71;49.50;68.75;;
70454;Laerm;57915;47.174;14.680;2022-12-07T04:50:16;59.19;50.78;67.55;;
70454;Laerm;57915;47.174;14.680;2022-12-07T04:51:18;63.32;50.11;74.26;;
70454;Laerm;57915;47.174;14.680;2022-12-07T04:52:20;63.31;50.74;72.84;;
70454;Laerm;57915;47.174;14.680;2022-12-07T04:53:21;62.54;49.80;74.40;;
70454;Laerm;57915;47.174;14.680;2022-12-07T04:54:22;60.50;49.67;73.65;;
70454;Laerm;57915;47.174;14.680;2022-12-07T04:55:23;58.44;49.74;68.85;;
70454;Laerm;57915;47.174;14.680;2022-12-07T04:56:24;59.80;49.92;73.26;;
70454;Laerm;57915;47.174;14.680;2022-12-07T04:57:25;57.59;49.84;69.73;;
70454;Laerm;57915;47.174;14.680;2022-12-07T04:58:26;50.76;49.89;52.40;;
70454;Laerm;57915;47.174;14.680;2022-12-07T04:59:27;62.18;50.25;73.84;;
70454;Laerm;57915;47.174;14.680;2022-12-07T05:00:28;50.71;49.67;53.75;;
70454;Laerm;57915;47.174;14.680;2022-12-07T05:01:29;50.68;49.85;51.90;;
70454;Laerm;57915;47.174;14.680;2022-12-07T05:02:30;63.34;49.95;75.00;;
70454;Laerm;57915;47.174;14.680;2022-12-07T05:03:32;50.48;49.81;51.23;;
70454;Laerm;57915;47.174;14.680;2022-12-07T05:04:32;50.72;49.95;51.62;;
70454;Laerm;57915;47.174;14.680;2022-12-07T05:05:35;61.12;50.12;70.85;;
70454;Laerm;57915;47.174;14.680;2022-12-07T05:06:36;53.25;49.83;62.47;;
70454;Laerm;57915;47.174;14.680;2022-12-07T05:07:37;61.56;49.96;72.04;;
70454;Laerm;57915;47.174;14.680;2022-12-07T05:08:38;50.83;49.94;52.10;;
70454;Laerm;57915;47.174;14.680;2022-12-07T05:09:39;63.50;51.39;71.32;;
70454;Laerm;57915;47.174;14.680;2022-12-07T05:10:40;64.16;50.02;71.94;;
70454;Laerm;57915;47.174;14.680;2022-12-07T05:11:41;60.38;50.12;71.54;;
70454;Laerm;57915;47.174;14.680;2022-12-07T05:12:43;60.69;50.06;70.42;;
70454;Laerm;57915;47.174;14.680;2022-12-07T05:13:45;57.63;49.95;69.27;;
70454;Laerm;57915;47.174;14.680;2022-12-07T05:14:46;62.78;50.63;71.94;;
70454;Laerm;57915;47.174;14.680;2022-12-07T05:15:48;60.62;50.13;71.33;;
70454;Laerm;57915;47.174;14.680;2022-12-07T05:16:49;63.01;51.54;72.38;;
70454;Laerm;57915;47.174;14.680;2022-12-07T05:17:50;59.71;49.96;68.83;;
70454;Laerm;57915;47.174;14.680;2022-12-07T05:18:52;60.91;50.06;73.37;;
70454;Laerm;57915;47.174;14.680;2022-12-07T05:19:53;62.77;50.08;72.05;;
70454;Laerm;57915;47.174;14.680;2022-12-07T05:20:56;62.58;49.87;71.55;;
70454;Laerm;57915;47.174;14.680;2022-12-07T05:21:57;61.43;50.06;72.09;;
70454;Laerm;57915;47.174;14.680;2022-12-07T05:22:58;51.34;49.97;57.29;;
70454;Laerm;57915;47.174;14.680;2022-12-07T05:23:59;57.96;50.37;68.19;;
70454;Laerm;57915;47.174;14.680;2022-12-07T05:25:00;63.16;49.87;74.69;;
70454;Laerm;57915;47.174;14.680;2022-12-07T05:26:01;59.15;49.90;70.95;;
70454;Laerm;57915;47.174;14.680;2022-12-07T05:27:02;51.23;49.19;57.25;;
70454;Laerm;57915;47.174;14.680;2022-12-07T05:28:03;60.07;49.80;70.63;;
70454;Laerm;57915;47.174;14.680;2022-12-07T05:29:05;55.12;49.87;66.24;;
70454;Laerm;57915;47.174;14.680;2022-12-07T05:30:06;56.72;50.00;68.19;;
70454;Laerm;57915;47.174;14.680;2022-12-07T05:31:08;60.26;48.86;82.39;;
70454;Laerm;57915;47.174;14.680;2022-12-07T05:32:08;60.37;50.09;73.93;;
70454;Laerm;57915;47.174;14.680;2022-12-07T05:33:10;61.12;49.86;69.85;;
70454;Laerm;57915;47.174;14.680;2022-12-07T05:34:10;55.54;49.74;67.16;;
70454;Laerm;57915;47.174;14.680;2022-12-07T05:35:12;63.27;50.53;70.30;;
70454;Laerm;57915;47.174;14.680;2022-12-07T05:36:14;62.18;50.14;73.65;;
70454;Laerm;57915;47.174;14.680;2022-12-07T05:37:16;57.28;50.03;66.07;;
70454;Laerm;57915;47.174;14.680;2022-12-07T05:38:16;53.52;49.86;64.95;;
70454;Laerm;57915;47.174;14.680;2022-12-07T05:39:18;61.12;50.23;70.01;;
70454;Laerm;57915;47.174;14.680;2022-12-07T05:40:19;53.98;50.06;68.28;;
70454;Laerm;57915;47.174;14.680;2022-12-07T05:41:19;60.38;50.00;71.03;;
70454;Laerm;57915;47.174;14.680;2022-12-07T05:42:39;55.73;49.86;67.57;;
70454;Laerm;57915;47.174;14.680;2022-12-07T05:43:40;50.81;49.81;51.97;;
70454;Laerm;57915;47.174;14.680;2022-12-07T05:44:41;58.88;50.21;66.81;;
70454;Laerm;57915;47.174;14.680;2022-12-07T05:45:43;56.63;49.22;64.92;;
70454;Laerm;57915;47.174;14.680;2022-12-07T05:46:43;66.24;53.72;76.18;;
70454;Laerm;57915;47.174;14.680;2022-12-07T05:47:45;57.80;49.85;67.69;;